Time;durP1;ratioP1;P1;durP2;ratioP2;P2;SDS_P1;SDS_P2;PMS_P1;PMS_P2;Temp;Humidity;BMP_temperature;BMP_pressure;BME280_temperature;BME280_humidity;BME280_pressure;Samples;Min_cycle;Max_cycle;Signal;HPM_P1;HPM_P2
2023/04/04 00:02:08;;;;;;;22.90;12.80;;;;;;;-128.00;-1.00;-1.00;103882;1257;1002760;-81
2023/04/04 00:04:34;;;;;;;26.20;12.80;;;;;;;-128.00;-1.00;-1.00;103866;1257;1002517;-81
2023/04/04 00:07:01;;;;;;;29.30;14.80;;;;;;;-128.00;-1.00;-1.00;103912;1260;1003135;-82
2023/04/04 00:09:27;;;;;;;29.30;12.30;;;;;;;-128.00;-1.00;-1.00;103868;1256;1002824;-80
2023/04/04 00:11:54;;;;;;;22.10;13.60;;;;;;;-128.00;-1.00;-1.00;103874;1257;1002866;-81
2023/04/04 00:14:21;;;;;;;22.70;14.10;;;;;;;-128.00;-1.00;-1.00;103881;1256;1002422;-79
2023/04/04 00:16:47;;;;;;;25.00;14.00;;;;;;;-128.00;-1.00;-1.00;103949;1259;1002718;-81
2023/04/04 00:19:16;;;;;;;22.90;14.70;;;;;;;-128.00;-1.00;-1.00;103922;1256;1003165;-79
2023/04/04 00:21:44;;;;;;;27.30;14.10;;;;;;;-128.00;-1.00;-1.00;103948;1256;1010774;-79
2023/04/04 00:24:11;;;;;;;19.80;11.20;;;;;;;-128.00;-1.00;-1.00;103690;1257;1002694;-80
2023/04/04 00:26:37;;;;;;;24.20;13.20;;;;;;;-128.00;-1.00;-1.00;103939;1256;1002701;-79
2023/04/04 00:29:04;;;;;;;21.90;10.30;;;;;;;-128.00;-1.00;-1.00;103876;1257;1003000;-79
2023/04/04 00:31:30;;;;;;;19.20;11.50;;;;;;;-128.00;-1.00;-1.00;104248;1256;1003336;-82
2023/04/04 00:33:58;;;;;;;22.30;13.30;;;;;;;-128.00;-1.00;-1.00;103975;1256;1002844;-79
2023/04/04 00:36:24;;;;;;;16.20;10.60;;;;;;;-128.00;-1.00;-1.00;104110;1256;1002240;-79
2023/04/04 00:38:51;;;;;;;23.20;9.40;;;;;;;-128.00;-1.00;-1.00;104043;1256;1002528;-80
2023/04/04 00:41:17;;;;;;;15.80;8.90;;;;;;;-128.00;-1.00;-1.00;103897;1256;1002469;-79
2023/04/04 00:43:43;;;;;;;15.60;8.40;;;;;;;-128.00;-1.00;-1.00;103743;1257;1003261;-79
2023/04/04 00:46:13;;;;;;;17.80;10.30;;;;;;;-128.00;-1.00;-1.00;106009;1256;1002205;-77
2023/04/04 00:48:40;;;;;;;14.40;7.20;;;;;;;-128.00;-1.00;-1.00;103404;1260;1013787;-81
2023/04/04 00:51:07;;;;;;;18.00;9.50;;;;;;;-128.00;-1.00;-1.00;103502;1260;1002243;-80
2023/04/04 00:53:33;;;;;;;21.10;10.80;;;;;;;-128.00;-1.00;-1.00;103457;1257;1005277;-79
2023/04/04 00:56:00;;;;;;;16.80;9.00;;;;;;;-128.00;-1.00;-1.00;103960;1257;1002585;-79
2023/04/04 00:58:27;;;;;;;15.80;8.20;;;;;;;-128.00;-1.00;-1.00;103601;1257;1002802;-79
2023/04/04 01:00:54;;;;;;;18.70;8.90;;;;;;;-128.00;-1.00;-1.00;103851;1256;1003065;-81
2023/04/04 01:03:21;;;;;;;17.30;7.70;;;;;;;-128.00;-1.00;-1.00;103864;1256;1003197;-80
2023/04/04 01:05:47;;;;;;;15.40;7.80;;;;;;;-128.00;-1.00;-1.00;103889;1256;1002831;-80
2023/04/04 01:08:17;;;;;;;15.70;7.90;;;;;;;-128.00;-1.00;-1.00;103926;1256;1002914;-79
2023/04/04 01:10:43;;;;;;;16.00;7.90;;;;;;;-128.00;-1.00;-1.00;103884;1257;1010900;-79
2023/04/04 01:13:09;;;;;;;13.80;8.30;;;;;;;-128.00;-1.00;-1.00;103740;1257;1002527;-81
2023/04/04 01:15:36;;;;;;;16.70;7.70;;;;;;;-128.00;-1.00;-1.00;103770;1256;1002596;-81
2023/04/04 01:18:02;;;;;;;25.20;11.60;;;;;;;-128.00;-1.00;-1.00;103885;1256;1003228;-81
2023/04/04 01:20:30;;;;;;;26.20;13.20;;;;;;;-128.00;-1.00;-1.00;103862;1257;1002911;-80
2023/04/04 01:22:57;;;;;;;15.90;8.90;;;;;;;-128.00;-1.00;-1.00;103756;1256;1004665;-81
2023/04/04 01:25:29;;;;;;;17.90;10.00;;;;;;;-128.00;-1.00;-1.00;103196;1256;1002831;-79
2023/04/04 01:27:55;;;;;;;19.40;9.10;;;;;;;-128.00;-1.00;-1.00;103851;1260;1013588;-81
2023/04/04 01:30:22;;;;;;;17.20;9.50;;;;;;;-128.00;-1.00;-1.00;103892;1256;1003094;-78
2023/04/04 01:32:53;;;;;;;18.30;10.50;;;;;;;-128.00;-1.00;-1.00;103926;1256;1002786;-80
2023/04/04 01:35:58;;;;;;;17.70;10.80;;;;;;;-128.00;-1.00;-1.00;103794;1256;1010737;-80
2023/04/04 01:38:28;;;;;;;18.10;9.90;;;;;;;-128.00;-1.00;-1.00;106173;1256;1014175;-77
2023/04/04 01:41:00;;;;;;;25.80;13.10;;;;;;;-128.00;-1.00;-1.00;103669;1256;1013133;-78
2023/04/04 01:43:29;;;;;;;21.80;9.60;;;;;;;-128.00;-1.00;-1.00;103410;1256;1013110;-78
2023/04/04 01:45:57;;;;;;;;;;;;;;;-128.00;-1.00;-1.00;103456;1256;1010610;-80
2023/04/04 01:48:23;;;;;;;17.00;9.20;;;;;;;-128.00;-1.00;-1.00;103390;1259;1002195;-79
2023/04/04 01:50:50;;;;;;;23.40;10.20;;;;;;;-128.00;-1.00;-1.00;103414;1262;1002691;-79
2023/04/04 01:53:16;;;;;;;18.60;10.40;;;;;;;-128.00;-1.00;-1.00;103390;1260;1002456;-78
2023/04/04 01:55:43;;;;;;;24.70;11.90;;;;;;;-128.00;-1.00;-1.00;103402;1256;1002734;-77
2023/04/04 01:58:10;;;;;;;20.60;10.40;;;;;;;-128.00;-1.00;-1.00;103492;1257;1002692;-77
2023/04/04 02:00:36;;;;;;;20.30;9.40;;;;;;;-128.00;-1.00;-1.00;103627;1256;1002204;-77
2023/04/04 02:03:03;;;;;;;23.50;10.80;;;;;;;-128.00;-1.00;-1.00;103562;1256;1003046;-78
2023/04/04 02:05:29;;;;;;;26.80;11.20;;;;;;;-128.00;-1.00;-1.00;103811;1259;1002210;-78
2023/04/04 02:07:56;;;;;;;27.20;11.30;;;;;;;-128.00;-1.00;-1.00;103641;1256;1002737;-80
2023/04/04 02:10:23;;;;;;;22.30;11.20;;;;;;;-128.00;-1.00;-1.00;103500;1256;1002914;-78
2023/04/04 02:12:52;;;;;;;25.30;11.00;;;;;;;-128.00;-1.00;-1.00;103464;1257;1002381;-80
2023/04/04 02:15:18;;;;;;;;;;;;;;;-128.00;-1.00;-1.00;103414;1260;1012743;-80
2023/04/04 02:17:48;;;;;;;19.60;9.50;;;;;;;-128.00;-1.00;-1.00;103425;1257;1004098;-77
2023/04/04 02:20:15;;;;;;;18.40;9.50;;;;;;;-128.00;-1.00;-1.00;103547;1256;1013319;-79
2023/04/04 02:22:41;;;;;;;17.80;9.20;;;;;;;-128.00;-1.00;-1.00;103389;1258;1005388;-82
2023/04/04 02:25:08;;;;;;;16.50;8.50;;;;;;;-128.00;-1.00;-1.00;104001;1257;1002485;-81
2023/04/04 02:27:35;;;;;;;17.60;8.70;;;;;;;-128.00;-1.00;-1.00;104031;1256;1002799;-80
2023/04/04 02:30:01;;;;;;;12.60;6.30;;;;;;;-128.00;-1.00;-1.00;105515;1256;1002705;-81
2023/04/04 02:32:27;;;;;;;13.70;6.00;;;;;;;-128.00;-1.00;-1.00;104121;1257;1002668;-81
2023/04/04 02:34:54;;;;;;;11.60;7.00;;;;;;;-128.00;-1.00;-1.00;104307;1256;1002497;-82
2023/04/04 02:37:20;;;;;;;12.20;6.90;;;;;;;-128.00;-1.00;-1.00;103903;1256;1002750;-82
2023/04/04 02:39:47;;;;;;;11.80;6.60;;;;;;;-128.00;-1.00;-1.00;103918;1256;1003212;-78
2023/04/04 02:42:13;;;;;;;12.70;5.90;;;;;;;-128.00;-1.00;-1.00;103374;1260;1003634;-79
2023/04/04 02:44:40;;;;;;;17.20;7.80;;;;;;;-128.00;-1.00;-1.00;103437;1256;1002812;-82
2023/04/04 02:47:06;;;;;;;19.40;7.50;;;;;;;-128.00;-1.00;-1.00;103377;1256;1002885;-80
2023/04/04 02:49:33;;;;;;;17.60;8.50;;;;;;;-128.00;-1.00;-1.00;103424;1260;1003959;-81
2023/04/04 02:52:00;;;;;;;19.60;9.30;;;;;;;-128.00;-1.00;-1.00;103896;1262;1002541;-80
2023/04/04 02:54:26;;;;;;;20.70;9.50;;;;;;;-128.00;-1.00;-1.00;103928;1259;1004928;-81
2023/04/04 02:56:52;;;;;;;17.60;8.60;;;;;;;-128.00;-1.00;-1.00;103366;1256;1004021;-81
2023/04/04 02:59:20;;;;;;;16.80;9.50;;;;;;;-128.00;-1.00;-1.00;103198;1256;1002633;-81
2023/04/04 03:01:46;;;;;;;20.00;9.50;;;;;;;-128.00;-1.00;-1.00;103396;1260;1002745;-78
2023/04/04 03:04:13;;;;;;;16.50;7.50;;;;;;;-128.00;-1.00;-1.00;103343;1256;1002632;-80
2023/04/04 03:06:40;;;;;;;22.10;9.00;;;;;;;-128.00;-1.00;-1.00;103365;1256;1003229;-81
2023/04/04 03:09:06;;;;;;;15.60;8.00;;;;;;;-128.00;-1.00;-1.00;103356;1256;1002772;-80
2023/04/04 03:11:33;;;;;;;14.70;7.60;;;;;;;-128.00;-1.00;-1.00;103315;1256;1003344;-81
2023/04/04 03:13:59;;;;;;;12.90;6.50;;;;;;;-128.00;-1.00;-1.00;103437;1255;1003133;-81
2023/04/04 03:16:26;;;;;;;15.30;8.90;;;;;;;-128.00;-1.00;-1.00;103383;1257;1002736;-81
2023/04/04 03:18:52;;;;;;;13.30;7.30;;;;;;;-128.00;-1.00;-1.00;103312;1259;1002582;-81
2023/04/04 03:21:18;;;;;;;11.20;6.50;;;;;;;-128.00;-1.00;-1.00;103422;1257;1004464;-80
2023/04/04 03:23:45;;;;;;;10.10;6.10;;;;;;;-128.00;-1.00;-1.00;103369;1256;1002677;-80
2023/04/04 03:26:11;;;;;;;14.90;9.10;;;;;;;-128.00;-1.00;-1.00;103350;1256;1002706;-80
2023/04/04 03:28:38;;;;;;;13.30;6.50;;;;;;;-128.00;-1.00;-1.00;103452;1256;1004522;-80
2023/04/04 03:31:05;;;;;;;11.50;6.80;;;;;;;-128.00;-1.00;-1.00;103415;1256;1002566;-80
2023/04/04 03:33:35;;;;;;;14.40;5.70;;;;;;;-128.00;-1.00;-1.00;103426;1260;1002604;-80
2023/04/04 03:36:02;;;;;;;10.70;6.20;;;;;;;-128.00;-1.00;-1.00;103427;1256;1009712;-80
2023/04/04 03:38:28;;;;;;;12.00;5.30;;;;;;;-128.00;-1.00;-1.00;103404;1256;1003221;-80
2023/04/04 03:41:02;;;;;;;14.00;5.70;;;;;;;-128.00;-1.00;-1.00;103499;1260;1002344;-81
2023/04/04 03:43:29;;;;;;;12.10;6.70;;;;;;;-128.00;-1.00;-1.00;103806;1256;1012608;-80
2023/04/04 03:45:59;;;;;;;14.30;6.40;;;;;;;-128.00;-1.00;-1.00;103451;1256;1002351;-80
2023/04/04 03:48:26;;;;;;;11.10;6.30;;;;;;;-128.00;-1.00;-1.00;103646;1260;1009961;-80
2023/04/04 03:50:52;;;;;;;12.80;6.10;;;;;;;-128.00;-1.00;-1.00;103435;1255;1002471;-79
2023/04/04 03:53:19;;;;;;;13.60;7.40;;;;;;;-128.00;-1.00;-1.00;103447;1257;1004243;-78
2023/04/04 03:55:45;;;;;;;20.70;8.50;;;;;;;-128.00;-1.00;-1.00;103408;1259;1002706;-77
2023/04/04 03:58:11;;;;;;;13.80;6.60;;;;;;;-128.00;-1.00;-1.00;103425;1256;1002948;-79
2023/04/04 04:00:38;;;;;;;16.10;7.90;;;;;;;-128.00;-1.00;-1.00;103428;1257;1005007;-77
2023/04/04 04:03:04;;;;;;;13.70;6.50;;;;;;;-128.00;-1.00;-1.00;103490;1256;1002354;-78
2023/04/04 04:05:31;;;;;;;10.40;6.10;;;;;;;-128.00;-1.00;-1.00;103458;1256;1003241;-77
2023/04/04 04:07:57;;;;;;;15.10;7.70;;;;;;;-128.00;-1.00;-1.00;103506;1256;1002690;-79
2023/04/04 04:10:23;;;;;;;14.20;6.30;;;;;;;-128.00;-1.00;-1.00;104766;1256;1002464;-77
2023/04/04 04:12:50;;;;;;;17.80;7.50;;;;;;;-128.00;-1.00;-1.00;103539;1256;1003049;-77
2023/04/04 04:15:17;;;;;;;16.10;8.10;;;;;;;-128.00;-1.00;-1.00;103760;1257;1002472;-78
2023/04/04 04:17:43;;;;;;;16.10;7.50;;;;;;;-128.00;-1.00;-1.00;103496;1257;1002935;-78
2023/04/04 04:20:10;;;;;;;16.70;8.90;;;;;;;-128.00;-1.00;-1.00;103506;1256;1002659;-79
2023/04/04 04:22:37;;;;;;;19.50;9.10;;;;;;;-128.00;-1.00;-1.00;103447;1256;1002576;-79
2023/04/04 04:25:04;;;;;;;19.50;8.60;;;;;;;-128.00;-1.00;-1.00;103667;1256;1002846;-77
2023/04/04 04:27:30;;;;;;;17.60;9.50;;;;;;;-128.00;-1.00;-1.00;103545;1256;1003058;-79
2023/04/04 04:29:56;;;;;;;20.70;8.60;;;;;;;-128.00;-1.00;-1.00;103790;1258;1002997;-78
2023/04/04 04:32:25;;;;;;;17.80;8.60;;;;;;;-128.00;-1.00;-1.00;103462;1257;1003840;-78
2023/04/04 04:34:51;;;;;;;15.80;8.10;;;;;;;-128.00;-1.00;-1.00;103685;1258;1012972;-78
2023/04/04 04:37:18;;;;;;;16.30;7.80;;;;;;;-128.00;-1.00;-1.00;103509;1257;1002695;-79
2023/04/04 04:39:44;;;;;;;18.10;8.50;;;;;;;-128.00;-1.00;-1.00;103474;1262;1002734;-78
2023/04/04 04:42:10;;;;;;;21.90;7.90;;;;;;;-128.00;-1.00;-1.00;103482;1256;1003761;-78
2023/04/04 04:44:37;;;;;;;11.10;6.80;;;;;;;-128.00;-1.00;-1.00;103912;1257;1003028;-78
2023/04/04 04:47:03;;;;;;;15.80;8.30;;;;;;;-128.00;-1.00;-1.00;103593;1256;1003170;-78
2023/04/04 04:49:30;;;;;;;15.70;7.60;;;;;;;-128.00;-1.00;-1.00;103699;1256;1002738;-78
2023/04/04 04:51:56;;;;;;;16.20;7.80;;;;;;;-128.00;-1.00;-1.00;103510;1256;1004082;-80
2023/04/04 04:54:23;;;;;;;22.90;10.10;;;;;;;-128.00;-1.00;-1.00;103387;1259;1002739;-80
2023/04/04 04:56:49;;;;;;;17.50;9.20;;;;;;;-128.00;-1.00;-1.00;103335;1262;1002793;-80
2023/04/04 04:59:16;;;;;;;13.70;9.10;;;;;;;-128.00;-1.00;-1.00;103370;1256;1002227;-79
2023/04/04 05:01:42;;;;;;;18.00;9.20;;;;;;;-128.00;-1.00;-1.00;103408;1257;1003300;-81
2023/04/04 05:04:09;;;;;;;18.70;8.50;;;;;;;-128.00;-1.00;-1.00;103392;1260;1003106;-80
2023/04/04 05:06:36;;;;;;;16.40;10.60;;;;;;;-128.00;-1.00;-1.00;103342;1257;1003071;-81
2023/04/04 05:09:03;;;;;;;14.50;7.30;;;;;;;-128.00;-1.00;-1.00;103421;1259;1002795;-77
2023/04/04 05:11:30;;;;;;;13.40;6.70;;;;;;;-128.00;-1.00;-1.00;103644;1256;1002938;-79
2023/04/04 05:13:57;;;;;;;16.40;8.20;;;;;;;-128.00;-1.00;-1.00;105217;1256;1003075;-78
2023/04/04 05:16:24;;;;;;;15.70;7.70;;;;;;;-128.00;-1.00;-1.00;105759;1256;1003025;-80
2023/04/04 05:18:51;;;;;;;20.40;8.50;;;;;;;-128.00;-1.00;-1.00;105913;1256;1002695;-79
2023/04/04 05:21:18;;;;;;;16.00;7.80;;;;;;;-128.00;-1.00;-1.00;106082;1262;1002756;-78
2023/04/04 05:23:47;;;;;;;17.90;9.00;;;;;;;-128.00;-1.00;-1.00;106063;1256;1002722;-76
2023/04/04 05:26:13;;;;;;;15.60;8.20;;;;;;;-128.00;-1.00;-1.00;106175;1256;1009259;-78
2023/04/04 05:28:41;;;;;;;17.60;8.60;;;;;;;-128.00;-1.00;-1.00;105999;1256;1002812;-77
2023/04/04 05:31:07;;;;;;;21.50;8.00;;;;;;;-128.00;-1.00;-1.00;106248;1256;1002946;-77
2023/04/04 05:33:34;;;;;;;13.20;7.20;;;;;;;-128.00;-1.00;-1.00;106216;1256;1002861;-77
2023/04/04 05:36:01;;;;;;;19.50;8.30;;;;;;;-128.00;-1.00;-1.00;106281;1256;1002803;-77
2023/04/04 05:38:28;;;;;;;23.40;8.60;;;;;;;-128.00;-1.00;-1.00;105995;1256;1003195;-76
2023/04/04 05:40:55;;;;;;;15.80;7.70;;;;;;;-128.00;-1.00;-1.00;106267;1256;1002642;-78
2023/04/04 05:43:21;;;;;;;13.20;7.40;;;;;;;-128.00;-1.00;-1.00;106190;1256;1003581;-76
2023/04/04 05:45:48;;;;;;;14.80;7.90;;;;;;;-128.00;-1.00;-1.00;105761;1256;1003049;-77
2023/04/04 05:48:15;;;;;;;15.10;7.40;;;;;;;-128.00;-1.00;-1.00;104332;1257;1003340;-78
2023/04/04 05:50:44;;;;;;;30.80;10.60;;;;;;;-128.00;-1.00;-1.00;103738;1259;1003139;-77
2023/04/04 05:53:10;;;;;;;;;;;;;;;-128.00;-1.00;-1.00;103537;1258;1011493;-79
2023/04/04 05:55:36;;;;;;;13.60;6.80;;;;;;;-128.00;-1.00;-1.00;103792;1260;1002535;-79
2023/04/04 05:58:03;;;;;;;15.50;7.20;;;;;;;-128.00;-1.00;-1.00;103592;1257;1002757;-77
2023/04/04 06:00:29;;;;;;;13.60;6.40;;;;;;;-128.00;-1.00;-1.00;103533;1257;1002659;-77
2023/04/04 06:02:57;;;;;;;15.20;7.40;;;;;;;-128.00;-1.00;-1.00;103728;1259;1003010;-76
2023/04/04 06:05:24;;;;;;;17.50;8.90;;;;;;;-128.00;-1.00;-1.00;103523;1259;1002890;-79
2023/04/04 06:07:50;;;;;;;19.00;8.70;;;;;;;-128.00;-1.00;-1.00;103522;1255;1002435;-78
2023/04/04 06:10:17;;;;;;;19.80;7.50;;;;;;;-128.00;-1.00;-1.00;103575;1257;1004009;-79
2023/04/04 06:12:43;;;;;;;20.00;9.20;;;;;;;-128.00;-1.00;-1.00;103526;1256;1002683;-79
2023/04/04 06:15:10;;;;;;;17.60;7.40;;;;;;;-128.00;-1.00;-1.00;103516;1256;1002390;-80
2023/04/04 06:17:36;;;;;;;18.00;8.70;;;;;;;-128.00;-1.00;-1.00;103658;1256;1004706;-79
2023/04/04 06:20:03;;;;;;;14.90;8.20;;;;;;;-128.00;-1.00;-1.00;103679;1260;1002947;-79
2023/04/04 06:22:30;;;;;;;17.90;9.00;;;;;;;-128.00;-1.00;-1.00;103750;1260;1002657;-81
2023/04/04 06:24:57;;;;;;;12.60;8.00;;;;;;;-128.00;-1.00;-1.00;104441;1256;1002719;-78
2023/04/04 06:27:24;;;;;;;14.90;8.00;;;;;;;-128.00;-1.00;-1.00;104550;1256;1002912;-78
2023/04/04 06:29:50;;;;;;;21.70;11.60;;;;;;;-128.00;-1.00;-1.00;104190;1256;1004114;-78
2023/04/04 06:32:16;;;;;;;14.20;7.90;;;;;;;-128.00;-1.00;-1.00;104129;1256;1004690;-78
2023/04/04 06:34:43;;;;;;;10.60;6.60;;;;;;;-128.00;-1.00;-1.00;103833;1259;1002773;-79
2023/04/04 06:37:10;;;;;;;15.80;7.60;;;;;;;-128.00;-1.00;-1.00;103997;1256;1002595;-76
2023/04/04 06:39:36;;;;;;;13.20;7.90;;;;;;;-128.00;-1.00;-1.00;103818;1256;1002622;-78
2023/04/04 06:42:02;;;;;;;13.30;8.00;;;;;;;-128.00;-1.00;-1.00;103846;1257;1003092;-78
2023/04/04 06:44:29;;;;;;;11.90;6.40;;;;;;;-128.00;-1.00;-1.00;103610;1258;1003818;-78
2023/04/04 06:46:55;;;;;;;14.10;7.30;;;;;;;-128.00;-1.00;-1.00;103718;1259;1002872;-79
2023/04/04 06:49:22;;;;;;;14.20;6.60;;;;;;;-128.00;-1.00;-1.00;103684;1260;1003065;-76
2023/04/04 06:51:49;;;;;;;15.20;6.60;;;;;;;-128.00;-1.00;-1.00;103819;1259;1003060;-75
2023/04/04 06:54:16;;;;;;;12.40;6.50;;;;;;;-128.00;-1.00;-1.00;103509;1262;1002546;-76
2023/04/04 06:56:42;;;;;;;15.90;9.00;;;;;;;-128.00;-1.00;-1.00;103952;1261;1002880;-76
2023/04/04 06:59:11;;;;;;;11.70;6.70;;;;;;;-128.00;-1.00;-1.00;103909;1257;1002985;-76
2023/04/04 07:01:37;;;;;;;16.80;7.70;;;;;;;-128.00;-1.00;-1.00;104113;1259;1015835;-76
2023/04/04 07:04:04;;;;;;;19.90;8.90;;;;;;;-128.00;-1.00;-1.00;104034;1262;1002518;-76
2023/04/04 07:06:30;;;;;;;16.50;11.50;;;;;;;-128.00;-1.00;-1.00;104047;1256;1003849;-78
2023/04/04 07:08:57;;;;;;;28.70;13.60;;;;;;;-128.00;-1.00;-1.00;103661;1256;1004049;-78
2023/04/04 07:11:23;;;;;;;22.40;11.80;;;;;;;-128.00;-1.00;-1.00;103750;1259;1002638;-78
2023/04/04 07:13:50;;;;;;;13.60;7.70;;;;;;;-128.00;-1.00;-1.00;103714;1256;1002710;-78
2023/04/04 07:16:16;;;;;;;18.10;8.60;;;;;;;-128.00;-1.00;-1.00;103734;1257;1002402;-80
2023/04/04 07:18:43;;;;;;;15.40;8.20;;;;;;;-128.00;-1.00;-1.00;103969;1256;1002698;-78
2023/04/04 07:21:09;;;;;;;16.50;7.10;;;;;;;-128.00;-1.00;-1.00;104002;1257;1003388;-78
2023/04/04 07:23:36;;;;;;;19.80;8.80;;;;;;;-128.00;-1.00;-1.00;103986;1257;1003020;-77
2023/04/04 07:26:03;;;;;;;23.10;9.70;;;;;;;-128.00;-1.00;-1.00;103960;1256;1003187;-78
2023/04/04 07:28:30;;;;;;;42.00;24.30;;;;;;;-128.00;-1.00;-1.00;103743;1256;1002826;-76
2023/04/04 07:31:00;;;;;;;40.40;26.60;;;;;;;-128.00;-1.00;-1.00;103629;1256;1002344;-78
2023/04/04 07:33:27;;;;;;;20.60;12.80;;;;;;;-128.00;-1.00;-1.00;103740;1256;1012421;-78
2023/04/04 07:35:53;;;;;;;253.30;110.90;;;;;;;-128.00;-1.00;-1.00;103914;1256;1002767;-79
2023/04/04 07:38:20;;;;;;;35.40;20.00;;;;;;;-128.00;-1.00;-1.00;103963;1257;1002797;-78
2023/04/04 07:40:49;;;;;;;14.20;9.10;;;;;;;-128.00;-1.00;-1.00;103894;1257;1003108;-79
2023/04/04 07:43:16;;;;;;;22.60;11.50;;;;;;;-128.00;-1.00;-1.00;104004;1256;1011953;-78
2023/04/04 07:45:42;;;;;;;15.50;8.70;;;;;;;-128.00;-1.00;-1.00;103823;1258;1002436;-77
2023/04/04 07:48:09;;;;;;;13.30;7.70;;;;;;;-128.00;-1.00;-1.00;103714;1256;1002360;-79
2023/04/04 07:50:35;;;;;;;14.20;7.80;;;;;;;-128.00;-1.00;-1.00;103963;1257;1004620;-80
2023/04/04 07:53:02;;;;;;;13.50;7.30;;;;;;;-128.00;-1.00;-1.00;103653;1257;1002718;-80
2023/04/04 07:55:28;;;;;;;11.80;6.70;;;;;;;-128.00;-1.00;-1.00;103866;1256;1005139;-80
2023/04/04 07:57:55;;;;;;;11.20;6.50;;;;;;;-128.00;-1.00;-1.00;104205;1262;1002798;-80
2023/04/04 08:00:24;;;;;;;13.80;7.50;;;;;;;-128.00;-1.00;-1.00;103793;1257;1002888;-78
2023/04/04 08:02:54;;;;;;;14.10;8.00;;;;;;;-128.00;-1.00;-1.00;103546;1257;1013383;-78
2023/04/04 08:05:20;;;;;;;32.10;16.50;;;;;;;-128.00;-1.00;-1.00;103583;1261;1009958;-80
2023/04/04 08:07:47;;;;;;;17.00;10.80;;;;;;;-128.00;-1.00;-1.00;103524;1259;1004045;-80
2023/04/04 08:10:16;;;;;;;20.10;10.70;;;;;;;-128.00;-1.00;-1.00;105120;1256;1002915;-78
2023/04/04 08:12:43;;;;;;;13.80;7.10;;;;;;;-128.00;-1.00;-1.00;103757;1259;1013140;-75
2023/04/04 08:15:10;;;;;;;12.30;7.30;;;;;;;-128.00;-1.00;-1.00;103737;1257;1002838;-77
2023/04/04 08:17:37;;;;;;;26.40;9.70;;;;;;;-128.00;-1.00;-1.00;103964;1257;1002993;-76
2023/04/04 08:20:04;;;;;;;12.80;7.60;;;;;;;-128.00;-1.00;-1.00;103476;1257;1002729;-79
2023/04/04 08:22:31;;;;;;;13.90;6.10;;;;;;;-128.00;-1.00;-1.00;103826;1257;1002942;-78
2023/04/04 08:24:59;;;;;;;13.30;8.10;;;;;;;-128.00;-1.00;-1.00;103525;1257;1002832;-76
2023/04/04 08:27:26;;;;;;;14.20;8.00;;;;;;;-128.00;-1.00;-1.00;103371;1256;1003360;-80
2023/04/04 08:29:52;;;;;;;11.00;6.90;;;;;;;-128.00;-1.00;-1.00;103620;1256;1003285;-77
2023/04/04 08:32:19;;;;;;;25.40;16.90;;;;;;;-128.00;-1.00;-1.00;103618;1260;1002401;-77
2023/04/04 08:34:45;;;;;;;17.50;7.30;;;;;;;-128.00;-1.00;-1.00;103524;1256;1002243;-80
2023/04/04 08:37:11;;;;;;;49.10;25.40;;;;;;;-128.00;-1.00;-1.00;103674;1256;1002503;-77
2023/04/04 08:39:38;;;;;;;37.60;20.80;;;;;;;-128.00;-1.00;-1.00;103424;1256;1002381;-76
2023/04/04 08:42:06;;;;;;;14.70;8.80;;;;;;;-128.00;-1.00;-1.00;103764;1256;1002876;-80
2023/04/04 08:44:33;;;;;;;14.40;8.80;;;;;;;-128.00;-1.00;-1.00;103570;1256;1002261;-76
2023/04/04 08:47:02;;;;;;;8.90;6.20;;;;;;;-128.00;-1.00;-1.00;103466;1257;1003542;-77
2023/04/04 08:49:28;;;;;;;24.60;7.60;;;;;;;-128.00;-1.00;-1.00;103621;1257;1013352;-80
2023/04/04 08:51:55;;;;;;;9.60;6.00;;;;;;;-128.00;-1.00;-1.00;103466;1256;1002083;-76
2023/04/04 08:54:24;;;;;;;14.00;7.40;;;;;;;-128.00;-1.00;-1.00;103539;1257;1002683;-78
2023/04/04 08:56:51;;;;;;;;;;;;;;;-128.00;-1.00;-1.00;103869;1256;1010255;-78
2023/04/04 08:59:17;;;;;;;11.30;7.20;;;;;;;-128.00;-1.00;-1.00;103837;1256;1002693;-76
2023/04/04 09:01:44;;;;;;;9.50;6.20;;;;;;;-128.00;-1.00;-1.00;103736;1256;1002840;-78
2023/04/04 09:04:10;;;;;;;12.30;5.90;;;;;;;-128.00;-1.00;-1.00;103541;1256;1002447;-78
2023/04/04 09:06:37;;;;;;;8.80;5.10;;;;;;;-128.00;-1.00;-1.00;103541;1257;1002985;-79
2023/04/04 09:09:03;;;;;;;12.30;6.20;;;;;;;-128.00;-1.00;-1.00;103297;1257;1003859;-79
2023/04/04 09:11:30;;;;;;;9.30;5.30;;;;;;;-128.00;-1.00;-1.00;103565;1256;1003193;-78
2023/04/04 09:13:57;;;;;;;12.50;8.00;;;;;;;-128.00;-1.00;-1.00;104149;1257;1002876;-77
2023/04/04 09:16:23;;;;;;;8.60;4.80;;;;;;;-128.00;-1.00;-1.00;103848;1257;1002160;-79
2023/04/04 09:18:51;;;;;;;9.00;4.40;;;;;;;-128.00;-1.00;-1.00;104121;1257;1003090;-77
2023/04/04 09:21:18;;;;;;;7.20;4.40;;;;;;;-128.00;-1.00;-1.00;103564;1256;1003204;-80
2023/04/04 09:23:44;;;;;;;13.00;8.50;;;;;;;-128.00;-1.00;-1.00;103471;1257;1003178;-79
2023/04/04 09:26:15;;;;;;;5.20;3.20;;;;;;;-128.00;-1.00;-1.00;103860;1262;1002483;-78
2023/04/04 09:28:42;;;;;;;3.90;2.80;;;;;;;-128.00;-1.00;-1.00;103811;1261;1013215;-79
2023/04/04 09:31:08;;;;;;;8.30;4.80;;;;;;;-128.00;-1.00;-1.00;103839;1256;1003893;-79
2023/04/04 09:33:35;;;;;;;7.90;4.20;;;;;;;-128.00;-1.00;-1.00;103723;1257;1002091;-77
2023/04/04 09:36:05;;;;;;;6.90;3.50;;;;;;;-128.00;-1.00;-1.00;103348;1264;1002839;-79
2023/04/04 09:38:32;;;;;;;6.80;4.20;;;;;;;-128.00;-1.00;-1.00;104705;1257;1013118;-78
2023/04/04 09:40:58;;;;;;;11.10;4.20;;;;;;;-128.00;-1.00;-1.00;106130;1257;1002289;-78
2023/04/04 09:43:25;;;;;;;11.50;6.80;;;;;;;-128.00;-1.00;-1.00;106196;1260;1002477;-79
2023/04/04 09:45:52;;;;;;;9.90;5.30;;;;;;;-128.00;-1.00;-1.00;106195;1257;1002280;-77
2023/04/04 09:48:31;;;;;;;9.30;5.50;;;;;;;-128.00;-1.00;-1.00;105843;1260;1002399;-78
2023/04/04 09:50:58;;;;;;;9.70;5.60;;;;;;;-128.00;-1.00;-1.00;103459;1261;1013526;-76
2023/04/04 09:53:25;;;;;;;20.20;5.50;;;;;;;-128.00;-1.00;-1.00;103483;1257;1003264;-76
2023/04/04 09:55:52;;;;;;;7.60;4.80;;;;;;;-128.00;-1.00;-1.00;103575;1257;1002633;-76
2023/04/04 09:58:26;;;;;;;6.60;4.80;;;;;;;-128.00;-1.00;-1.00;103545;1257;1003003;-76
2023/04/04 10:00:58;;;;;;;5.90;3.70;;;;;;;-128.00;-1.00;-1.00;103668;1263;1013686;-77
2023/04/04 10:03:26;;;;;;;7.50;4.10;;;;;;;-128.00;-1.00;-1.00;103659;1262;1014438;-77
2023/04/04 10:05:59;;;;;;;8.80;5.40;;;;;;;-128.00;-1.00;-1.00;103757;1257;1002747;-76
2023/04/04 10:08:26;;;;;;;6.20;4.00;;;;;;;-128.00;-1.00;-1.00;103683;1256;1010354;-76
2023/04/04 10:11:00;;;;;;;9.00;5.00;;;;;;;-128.00;-1.00;-1.00;103387;1259;1004234;-77
2023/04/04 10:13:28;;;;;;;10.60;5.60;;;;;;;-128.00;-1.00;-1.00;103555;1261;1013728;-80
2023/04/04 10:15:56;;;;;;;9.20;5.80;;;;;;;-128.00;-1.00;-1.00;104782;1260;1002481;-78
2023/04/04 10:18:30;;;;;;;5.80;3.60;;;;;;;-128.00;-1.00;-1.00;105161;1259;1012736;-77
2023/04/04 10:20:59;;;;;;;6.10;3.50;;;;;;;-128.00;-1.00;-1.00;103491;1256;1009883;-77
2023/04/04 10:23:26;;;;;;;11.20;4.50;;;;;;;-128.00;-1.00;-1.00;103590;1257;1010910;-79
2023/04/04 10:25:53;;;;;;;10.70;5.40;;;;;;;-128.00;-1.00;-1.00;103607;1262;1002402;-78
2023/04/04 10:28:20;;;;;;;10.90;5.10;;;;;;;-128.00;-1.00;-1.00;103547;1258;1003386;-78
2023/04/04 10:30:54;;;;;;;8.70;4.50;;;;;;;-128.00;-1.00;-1.00;103586;1262;1002960;-79
2023/04/04 10:33:34;;;;;;;7.00;3.70;;;;;;;-128.00;-1.00;-1.00;103539;1257;1010616;-77
2023/04/04 10:36:02;;;;;;;11.20;5.20;;;;;;;-128.00;-1.00;-1.00;103682;1256;1011285;-79
2023/04/04 10:38:30;;;;;;;9.60;5.10;;;;;;;-128.00;-1.00;-1.00;103975;1256;1003279;-79
2023/04/04 10:40:58;;;;;;;6.70;2.90;;;;;;;-128.00;-1.00;-1.00;106118;1256;1012961;-77
2023/04/04 10:43:29;;;;;;;5.90;3.80;;;;;;;-128.00;-1.00;-1.00;105849;1261;1012794;-79
2023/04/04 10:45:55;;;;;;;5.10;3.10;;;;;;;-128.00;-1.00;-1.00;103870;1256;1012495;-79
2023/04/04 10:48:22;;;;;;;7.20;5.60;;;;;;;-128.00;-1.00;-1.00;103695;1257;1003743;-77
2023/04/04 10:50:48;;;;;;;9.50;4.30;;;;;;;-128.00;-1.00;-1.00;103847;1256;1002528;-80
2023/04/04 10:53:15;;;;;;;6.30;4.20;;;;;;;-128.00;-1.00;-1.00;103680;1262;1002855;-78
2023/04/04 10:55:43;;;;;;;10.50;4.00;;;;;;;-128.00;-1.00;-1.00;104183;1257;1002737;-78
2023/04/04 10:58:10;;;;;;;6.30;4.10;;;;;;;-128.00;-1.00;-1.00;103579;1257;1010367;-78
2023/04/04 11:00:51;;;;;;;8.50;4.80;;;;;;;-128.00;-1.00;-1.00;103614;1256;1002786;-79
2023/04/04 11:03:17;;;;;;;6.50;3.20;;;;;;;-128.00;-1.00;-1.00;103699;1257;1013938;-78
2023/04/04 11:05:47;;;;;;;5.30;3.10;;;;;;;-128.00;-1.00;-1.00;103578;1261;1002560;-77
2023/04/04 11:08:21;;;;;;;5.60;3.60;;;;;;;-128.00;-1.00;-1.00;103690;1256;1012867;-78
2023/04/04 11:10:51;;;;;;;652.70;301.50;;;;;;;-128.00;-1.00;-1.00;103728;1256;1010101;-79